Airfield :
LOGIN :

Register | Disclaimer

   EN    FR    IT 

 










Legend :    VFR   Marginal VFR   IFR   Intensive IFR   Very Intensive IFR
Visi :
Ceiling :
>= 8 km
>= 3000ft
5 to 8 km
1000 to 3000 ft
1500m to 5 km
500 to 1000 ft
800 to 1500m
200 to 500 ft
< 800m
< 200 ft
Symbols :   Thunderstorms  Fog  Heavy snow  Heavy precipitations  Wind > 20 kt
SIGMETs :     Misc.  Thunderstorms  Icing  Turbulence  Mountain Waves  Volcanic Ashes






- Airport Elevation : 147 ft
- IATA code : DUS


EDDL - Düsseldorf Int.

CURRENT METAR :
  • 141320Z AUTO 31009KT 250V020 CAVOK 16/06 Q1022 NOSIG

EXPIRED METARs :
  • 141250Z AUTO 28009KT 230V320 9999 SCT048 16/05 Q1022 NOSIG
  • 141220Z AUTO 29010KT 230V330 9999 FEW044 16/06 Q1022 NOSIG
  • 141150Z AUTO 33010KT 290V350 9999 FEW044 16/06 Q1023 NOSIG
  • 141120Z AUTO 27012KT 230V290 9999 SCT043 15/06 Q1023 NOSIG
  • 141050Z AUTO 27010KT 230V300 9999 FEW039 15/06 Q1023 NOSIG
  • 141020Z AUTO 26007KT 210V290 9999 SCT043 15/07 Q1023 NOSIG
  • 140950Z AUTO 27009KT 230V300 9999 FEW025 15/08 Q1023 NOSIG
  • 140920Z AUTO 28008KT 240V310 9999 BKN046 14/08 Q1023 NOSIG
  • 140850Z AUTO 28007KT 240V300 9999 FEW022 BKN045 14/09 Q1023 NOSIG
  • 140820Z AUTO 27007KT 230V330 9999 BKN041 14/09 Q1023 NOSIG

TAF TAF EDDL
Valid from the 14 at 12:00 until the 15 at 18:00 UTC


141100Z 1412/1518 28010KT 9999 FEW030 BKN040
BECMG 1416/1419 VRB03KT
TEMPO 1422/1501 25007KT
BECMG 1502/1505 23008KT
BECMG 1506/1508 23014KT
BECMG 1508/1511 24020G30KT
TEMPO 1512/1514 25025G40KT SHRA BKN025CB
PROB40
TEMPO 1514/1516 29030G50KT 2000 +TSGSRA SCT010 BKN015CB
TEMPO 1516/1518 4000 SHRAGS SCT020 BKN030CB



MET'MAP, your aeronautical weather chart ! - Copyright ORBIFLY December 2007 - Disclaimer

ORBIFLY MET'MAP TEAM :

Programming & Development : Alexandra Zaïnal
Original concept : Baudouin d'Aumeries
Technical & hardware support : Manuel Goepfert
Assistance : Marc-Olivier Méhu




SOURCES & CREDITS :

   NOAA